sensor_id;sensor_type;location;lat;lon;timestamp;P1;durP1;ratioP1;P2;durP2;ratioP2
51382;SDS011;37475;43.358;1.248;2022-10-31T00:00:48;21.40;;;8.55;;
51382;SDS011;37475;43.358;1.248;2022-10-31T00:03:15;17.77;;;9.05;;
51382;SDS011;37475;43.358;1.248;2022-10-31T00:05:43;19.13;;;8.85;;
51382;SDS011;37475;43.358;1.248;2022-10-31T00:08:11;17.55;;;7.57;;
51382;SDS011;37475;43.358;1.248;2022-10-31T00:10:40;20.80;;;8.43;;
51382;SDS011;37475;43.358;1.248;2022-10-31T00:13:07;15.98;;;7.70;;
51382;SDS011;37475;43.358;1.248;2022-10-31T00:15:34;18.55;;;8.18;;
51382;SDS011;37475;43.358;1.248;2022-10-31T00:18:02;15.48;;;8.38;;
51382;SDS011;37475;43.358;1.248;2022-10-31T00:20:29;17.92;;;8.90;;
51382;SDS011;37475;43.358;1.248;2022-10-31T00:23:01;19.75;;;8.43;;
51382;SDS011;37475;43.358;1.248;2022-10-31T00:25:29;18.10;;;8.68;;
51382;SDS011;37475;43.358;1.248;2022-10-31T00:28:01;20.17;;;8.48;;
51382;SDS011;37475;43.358;1.248;2022-10-31T00:30:28;19.15;;;8.80;;
51382;SDS011;37475;43.358;1.248;2022-10-31T00:32:54;21.33;;;9.00;;
51382;SDS011;37475;43.358;1.248;2022-10-31T00:35:19;16.48;;;8.60;;
51382;SDS011;37475;43.358;1.248;2022-10-31T00:37:45;20.95;;;9.20;;
51382;SDS011;37475;43.358;1.248;2022-10-31T00:40:11;17.33;;;8.40;;
51382;SDS011;37475;43.358;1.248;2022-10-31T00:42:38;22.10;;;9.88;;
51382;SDS011;37475;43.358;1.248;2022-10-31T00:45:06;21.35;;;9.63;;
51382;SDS011;37475;43.358;1.248;2022-10-31T00:47:34;20.15;;;9.85;;
51382;SDS011;37475;43.358;1.248;2022-10-31T00:50:00;20.27;;;9.55;;
51382;SDS011;37475;43.358;1.248;2022-10-31T00:52:26;20.88;;;9.38;;
51382;SDS011;37475;43.358;1.248;2022-10-31T00:54:51;19.05;;;9.80;;
51382;SDS011;37475;43.358;1.248;2022-10-31T00:57:17;20.38;;;9.80;;
51382;SDS011;37475;43.358;1.248;2022-10-31T00:59:43;27.35;;;10.05;;
51382;SDS011;37475;43.358;1.248;2022-10-31T01:02:09;18.42;;;9.52;;
51382;SDS011;37475;43.358;1.248;2022-10-31T01:04:35;20.33;;;9.98;;
51382;SDS011;37475;43.358;1.248;2022-10-31T01:07:00;21.55;;;10.40;;
51382;SDS011;37475;43.358;1.248;2022-10-31T01:09:26;23.30;;;10.48;;
51382;SDS011;37475;43.358;1.248;2022-10-31T01:11:52;25.42;;;10.57;;
51382;SDS011;37475;43.358;1.248;2022-10-31T01:14:17;22.40;;;9.80;;
51382;SDS011;37475;43.358;1.248;2022-10-31T01:16:43;25.40;;;11.00;;
51382;SDS011;37475;43.358;1.248;2022-10-31T01:19:09;23.52;;;10.73;;
51382;SDS011;37475;43.358;1.248;2022-10-31T01:21:35;24.38;;;10.38;;
51382;SDS011;37475;43.358;1.248;2022-10-31T01:24:01;24.67;;;11.45;;
51382;SDS011;37475;43.358;1.248;2022-10-31T01:26:30;22.45;;;11.05;;
51382;SDS011;37475;43.358;1.248;2022-10-31T01:28:59;24.52;;;11.95;;
51382;SDS011;37475;43.358;1.248;2022-10-31T01:31:29;24.48;;;10.70;;
51382;SDS011;37475;43.358;1.248;2022-10-31T01:33:58;23.10;;;11.07;;
51382;SDS011;37475;43.358;1.248;2022-10-31T01:36:26;21.70;;;11.30;;
51382;SDS011;37475;43.358;1.248;2022-10-31T01:39:01;24.20;;;12.18;;
51382;SDS011;37475;43.358;1.248;2022-10-31T01:41:31;29.60;;;11.77;;
51382;SDS011;37475;43.358;1.248;2022-10-31T01:44:01;22.50;;;11.40;;
51382;SDS011;37475;43.358;1.248;2022-10-31T01:46:52;26.08;;;12.10;;
51382;SDS011;37475;43.358;1.248;2022-10-31T01:49:46;24.70;;;11.32;;
51382;SDS011;37475;43.358;1.248;2022-10-31T01:52:35;28.52;;;11.98;;
51382;SDS011;37475;43.358;1.248;2022-10-31T01:55:15;26.27;;;11.50;;
51382;SDS011;37475;43.358;1.248;2022-10-31T01:57:58;29.55;;;11.73;;
51382;SDS011;37475;43.358;1.248;2022-10-31T02:00:32;26.50;;;11.80;;
51382;SDS011;37475;43.358;1.248;2022-10-31T02:02:58;26.17;;;12.30;;
51382;SDS011;37475;43.358;1.248;2022-10-31T02:05:26;26.13;;;11.85;;
51382;SDS011;37475;43.358;1.248;2022-10-31T02:10:58;28.25;;;11.60;;
51382;SDS011;37475;43.358;1.248;2022-10-31T02:13:27;21.17;;;12.00;;
51382;SDS011;37475;43.358;1.248;2022-10-31T02:15:56;24.02;;;12.30;;
51382;SDS011;37475;43.358;1.248;2022-10-31T02:18:24;31.30;;;11.90;;
51382;SDS011;37475;43.358;1.248;2022-10-31T02:32:51;30.45;;;12.05;;
51382;SDS011;37475;43.358;1.248;2022-10-31T02:38:38;24.75;;;11.32;;
51382;SDS011;37475;43.358;1.248;2022-10-31T02:44:34;24.80;;;12.20;;
51382;SDS011;37475;43.358;1.248;2022-10-31T02:47:16;30.60;;;12.60;;
51382;SDS011;37475;43.358;1.248;2022-10-31T02:52:28;26.50;;;12.25;;
51382;SDS011;37475;43.358;1.248;2022-10-31T02:54:57;26.00;;;12.65;;
51382;SDS011;37475;43.358;1.248;2022-10-31T02:57:32;25.75;;;12.35;;
51382;SDS011;37475;43.358;1.248;2022-10-31T03:00:00;26.80;;;12.75;;
51382;SDS011;37475;43.358;1.248;2022-10-31T03:11:22;27.25;;;13.60;;
51382;SDS011;37475;43.358;1.248;2022-10-31T03:13:57;31.50;;;12.80;;
51382;SDS011;37475;43.358;1.248;2022-10-31T03:16:46;31.42;;;13.30;;
51382;SDS011;37475;43.358;1.248;2022-10-31T03:19:19;25.90;;;11.63;;
51382;SDS011;37475;43.358;1.248;2022-10-31T03:21:58;24.70;;;12.68;;
51382;SDS011;37475;43.358;1.248;2022-10-31T03:24:40;32.88;;;15.25;;
51382;SDS011;37475;43.358;1.248;2022-10-31T03:27:07;45.13;;;18.15;;
51382;SDS011;37475;43.358;1.248;2022-10-31T03:29:38;32.05;;;14.65;;
51382;SDS011;37475;43.358;1.248;2022-10-31T03:32:08;44.15;;;15.18;;
51382;SDS011;37475;43.358;1.248;2022-10-31T03:34:39;36.08;;;15.57;;
51382;SDS011;37475;43.358;1.248;2022-10-31T03:37:08;32.15;;;13.52;;
51382;SDS011;37475;43.358;1.248;2022-10-31T03:39:40;28.92;;;11.82;;
51382;SDS011;37475;43.358;1.248;2022-10-31T03:42:13;27.45;;;12.95;;
51382;SDS011;37475;43.358;1.248;2022-10-31T03:44:47;32.83;;;13.88;;
51382;SDS011;37475;43.358;1.248;2022-10-31T03:47:21;29.98;;;13.68;;
51382;SDS011;37475;43.358;1.248;2022-10-31T03:49:47;26.25;;;12.35;;
51382;SDS011;37475;43.358;1.248;2022-10-31T03:52:27;23.65;;;12.88;;
51382;SDS011;37475;43.358;1.248;2022-10-31T03:55:19;25.13;;;12.07;;
51382;SDS011;37475;43.358;1.248;2022-10-31T03:57:58;24.67;;;12.65;;
51382;SDS011;37475;43.358;1.248;2022-10-31T04:00:30;26.70;;;13.10;;
51382;SDS011;37475;43.358;1.248;2022-10-31T04:03:03;24.67;;;12.73;;
51382;SDS011;37475;43.358;1.248;2022-10-31T04:05:43;22.75;;;12.88;;
51382;SDS011;37475;43.358;1.248;2022-10-31T04:08:12;35.22;;;12.52;;
51382;SDS011;37475;43.358;1.248;2022-10-31T04:10:44;28.52;;;12.07;;
51382;SDS011;37475;43.358;1.248;2022-10-31T04:13:14;24.85;;;12.57;;
51382;SDS011;37475;43.358;1.248;2022-10-31T04:15:44;30.13;;;13.90;;
51382;SDS011;37475;43.358;1.248;2022-10-31T04:18:10;25.92;;;13.20;;
51382;SDS011;37475;43.358;1.248;2022-10-31T04:20:38;24.40;;;12.70;;
51382;SDS011;37475;43.358;1.248;2022-10-31T04:23:27;27.42;;;11.88;;
51382;SDS011;37475;43.358;1.248;2022-10-31T04:25:52;30.00;;;12.95;;
51382;SDS011;37475;43.358;1.248;2022-10-31T04:28:18;22.42;;;12.93;;
51382;SDS011;37475;43.358;1.248;2022-10-31T04:30:45;26.83;;;12.70;;
51382;SDS011;37475;43.358;1.248;2022-10-31T04:33:11;24.33;;;12.77;;
51382;SDS011;37475;43.358;1.248;2022-10-31T04:35:37;26.40;;;13.93;;
51382;SDS011;37475;43.358;1.248;2022-10-31T04:38:03;29.50;;;14.63;;
51382;SDS011;37475;43.358;1.248;2022-10-31T04:40:28;32.65;;;13.68;;
51382;SDS011;37475;43.358;1.248;2022-10-31T04:42:54;28.30;;;13.20;;
51382;SDS011;37475;43.358;1.248;2022-10-31T04:45:20;26.13;;;12.75;;
51382;SDS011;37475;43.358;1.248;2022-10-31T04:47:46;26.45;;;12.68;;
51382;SDS011;37475;43.358;1.248;2022-10-31T04:50:12;28.98;;;12.75;;
51382;SDS011;37475;43.358;1.248;2022-10-31T04:52:41;25.20;;;13.43;;
51382;SDS011;37475;43.358;1.248;2022-10-31T04:55:09;29.25;;;13.38;;
51382;SDS011;37475;43.358;1.248;2022-10-31T04:57:46;24.38;;;12.90;;
51382;SDS011;37475;43.358;1.248;2022-10-31T05:00:15;27.63;;;13.05;;
51382;SDS011;37475;43.358;1.248;2022-10-31T05:02:54;25.73;;;13.02;;
51382;SDS011;37475;43.358;1.248;2022-10-31T05:05:23;25.13;;;12.48;;
51382;SDS011;37475;43.358;1.248;2022-10-31T05:07:52;28.20;;;12.88;;
51382;SDS011;37475;43.358;1.248;2022-10-31T05:10:19;28.10;;;12.80;;
51382;SDS011;37475;43.358;1.248;2022-10-31T05:12:49;28.13;;;13.63;;
51382;SDS011;37475;43.358;1.248;2022-10-31T05:15:18;28.67;;;12.65;;
51382;SDS011;37475;43.358;1.248;2022-10-31T05:17:46;30.92;;;13.27;;
51382;SDS011;37475;43.358;1.248;2022-10-31T05:20:13;24.88;;;13.18;;
51382;SDS011;37475;43.358;1.248;2022-10-31T05:22:47;25.63;;;12.57;;
51382;SDS011;37475;43.358;1.248;2022-10-31T05:25:16;32.22;;;12.90;;
51382;SDS011;37475;43.358;1.248;2022-10-31T05:27:46;25.08;;;12.82;;
51382;SDS011;37475;43.358;1.248;2022-10-31T05:30:14;26.60;;;12.32;;
51382;SDS011;37475;43.358;1.248;2022-10-31T05:32:45;25.85;;;12.23;;
51382;SDS011;37475;43.358;1.248;2022-10-31T05:35:14;32.65;;;12.88;;
51382;SDS011;37475;43.358;1.248;2022-10-31T05:37:45;33.80;;;13.25;;
51382;SDS011;37475;43.358;1.248;2022-10-31T05:40:12;27.98;;;12.73;;
51382;SDS011;37475;43.358;1.248;2022-10-31T05:42:40;25.00;;;11.65;;
51382;SDS011;37475;43.358;1.248;2022-10-31T05:45:08;27.75;;;13.38;;
51382;SDS011;37475;43.358;1.248;2022-10-31T05:47:37;26.90;;;12.52;;
51382;SDS011;37475;43.358;1.248;2022-10-31T05:50:03;27.15;;;13.27;;
51382;SDS011;37475;43.358;1.248;2022-10-31T05:52:31;27.40;;;13.50;;
51382;SDS011;37475;43.358;1.248;2022-10-31T05:54:57;25.95;;;13.40;;
51382;SDS011;37475;43.358;1.248;2022-10-31T05:57:23;28.45;;;13.55;;
51382;SDS011;37475;43.358;1.248;2022-10-31T05:59:49;24.67;;;12.98;;
51382;SDS011;37475;43.358;1.248;2022-10-31T06:02:18;27.02;;;14.05;;
51382;SDS011;37475;43.358;1.248;2022-10-31T06:04:44;26.17;;;13.50;;
51382;SDS011;37475;43.358;1.248;2022-10-31T06:07:10;26.00;;;13.15;;
51382;SDS011;37475;43.358;1.248;2022-10-31T06:09:36;26.42;;;13.40;;
51382;SDS011;37475;43.358;1.248;2022-10-31T06:12:02;27.83;;;12.98;;
51382;SDS011;37475;43.358;1.248;2022-10-31T06:14:28;26.17;;;12.95;;
51382;SDS011;37475;43.358;1.248;2022-10-31T06:16:54;30.98;;;13.68;;
51382;SDS011;37475;43.358;1.248;2022-10-31T06:19:20;28.30;;;13.75;;
51382;SDS011;37475;43.358;1.248;2022-10-31T06:21:46;25.85;;;13.63;;
51382;SDS011;37475;43.358;1.248;2022-10-31T06:24:12;31.23;;;12.82;;
51382;SDS011;37475;43.358;1.248;2022-10-31T06:26:39;30.85;;;13.93;;
51382;SDS011;37475;43.358;1.248;2022-10-31T06:29:05;29.50;;;14.23;;
51382;SDS011;37475;43.358;1.248;2022-10-31T06:31:31;30.40;;;13.75;;
51382;SDS011;37475;43.358;1.248;2022-10-31T06:33:57;33.08;;;14.00;;
51382;SDS011;37475;43.358;1.248;2022-10-31T06:36:23;23.02;;;13.25;;
51382;SDS011;37475;43.358;1.248;2022-10-31T06:38:49;28.27;;;13.90;;
51382;SDS011;37475;43.358;1.248;2022-10-31T06:41:15;28.42;;;12.65;;
51382;SDS011;37475;43.358;1.248;2022-10-31T06:43:41;26.70;;;12.95;;
51382;SDS011;37475;43.358;1.248;2022-10-31T06:46:06;28.65;;;13.40;;
51382;SDS011;37475;43.358;1.248;2022-10-31T06:48:32;26.52;;;13.20;;
51382;SDS011;37475;43.358;1.248;2022-10-31T06:51:01;29.67;;;13.13;;
51382;SDS011;37475;43.358;1.248;2022-10-31T06:53:27;28.15;;;13.55;;
51382;SDS011;37475;43.358;1.248;2022-10-31T06:55:57;27.60;;;12.43;;
51382;SDS011;37475;43.358;1.248;2022-10-31T06:58:23;34.70;;;13.00;;
51382;SDS011;37475;43.358;1.248;2022-10-31T07:00:49;25.70;;;12.50;;
51382;SDS011;37475;43.358;1.248;2022-10-31T07:03:15;27.63;;;12.80;;
51382;SDS011;37475;43.358;1.248;2022-10-31T07:05:41;26.02;;;12.05;;
51382;SDS011;37475;43.358;1.248;2022-10-31T07:08:09;25.17;;;12.93;;
51382;SDS011;37475;43.358;1.248;2022-10-31T07:10:37;26.30;;;12.27;;
51382;SDS011;37475;43.358;1.248;2022-10-31T07:13:06;25.33;;;12.93;;
51382;SDS011;37475;43.358;1.248;2022-10-31T07:15:37;24.67;;;12.77;;
51382;SDS011;37475;43.358;1.248;2022-10-31T07:18:05;24.45;;;11.77;;
51382;SDS011;37475;43.358;1.248;2022-10-31T07:20:34;28.40;;;12.77;;
51382;SDS011;37475;43.358;1.248;2022-10-31T07:23:00;26.27;;;11.98;;
51382;SDS011;37475;43.358;1.248;2022-10-31T07:25:26;24.88;;;12.27;;
51382;SDS011;37475;43.358;1.248;2022-10-31T07:27:52;27.67;;;12.90;;
51382;SDS011;37475;43.358;1.248;2022-10-31T07:30:18;30.65;;;12.00;;
51382;SDS011;37475;43.358;1.248;2022-10-31T07:32:45;24.35;;;11.02;;
51382;SDS011;37475;43.358;1.248;2022-10-31T07:35:16;20.10;;;10.40;;
51382;SDS011;37475;43.358;1.248;2022-10-31T07:37:44;24.02;;;10.32;;
51382;SDS011;37475;43.358;1.248;2022-10-31T07:40:11;25.48;;;12.18;;
51382;SDS011;37475;43.358;1.248;2022-10-31T07:42:40;22.60;;;11.18;;
51382;SDS011;37475;43.358;1.248;2022-10-31T07:45:09;25.23;;;11.57;;
51382;SDS011;37475;43.358;1.248;2022-10-31T07:47:41;23.33;;;11.73;;
51382;SDS011;37475;43.358;1.248;2022-10-31T07:50:14;27.05;;;11.68;;
51382;SDS011;37475;43.358;1.248;2022-10-31T07:52:43;26.77;;;11.45;;
51382;SDS011;37475;43.358;1.248;2022-10-31T07:55:10;20.58;;;10.80;;
51382;SDS011;37475;43.358;1.248;2022-10-31T07:57:36;20.05;;;10.50;;
51382;SDS011;37475;43.358;1.248;2022-10-31T08:00:05;23.75;;;11.18;;
51382;SDS011;37475;43.358;1.248;2022-10-31T08:02:33;22.17;;;11.20;;
51382;SDS011;37475;43.358;1.248;2022-10-31T08:04:59;28.85;;;11.40;;
51382;SDS011;37475;43.358;1.248;2022-10-31T08:07:27;24.40;;;11.00;;
51382;SDS011;37475;43.358;1.248;2022-10-31T08:09:53;26.02;;;10.98;;
51382;SDS011;37475;43.358;1.248;2022-10-31T08:12:20;22.13;;;11.13;;
51382;SDS011;37475;43.358;1.248;2022-10-31T08:14:46;19.05;;;10.73;;
51382;SDS011;37475;43.358;1.248;2022-10-31T08:17:12;30.17;;;10.73;;
51382;SDS011;37475;43.358;1.248;2022-10-31T08:19:38;24.58;;;10.18;;
51382;SDS011;37475;43.358;1.248;2022-10-31T08:22:04;24.10;;;10.20;;
51382;SDS011;37475;43.358;1.248;2022-10-31T08:24:30;23.63;;;9.90;;
51382;SDS011;37475;43.358;1.248;2022-10-31T08:26:55;23.20;;;9.70;;
51382;SDS011;37475;43.358;1.248;2022-10-31T08:29:21;23.77;;;10.23;;
51382;SDS011;37475;43.358;1.248;2022-10-31T08:31:47;21.73;;;10.98;;
51382;SDS011;37475;43.358;1.248;2022-10-31T08:34:13;25.27;;;9.52;;
51382;SDS011;37475;43.358;1.248;2022-10-31T08:36:38;25.33;;;9.95;;
51382;SDS011;37475;43.358;1.248;2022-10-31T08:39:04;22.85;;;8.90;;
51382;SDS011;37475;43.358;1.248;2022-10-31T08:41:30;23.75;;;8.68;;
51382;SDS011;37475;43.358;1.248;2022-10-31T08:43:56;22.17;;;8.43;;
51382;SDS011;37475;43.358;1.248;2022-10-31T08:46:22;19.73;;;8.77;;
51382;SDS011;37475;43.358;1.248;2022-10-31T08:48:48;26.38;;;8.02;;
51382;SDS011;37475;43.358;1.248;2022-10-31T08:51:14;22.98;;;9.02;;
51382;SDS011;37475;43.358;1.248;2022-10-31T08:53:40;18.73;;;8.43;;
51382;SDS011;37475;43.358;1.248;2022-10-31T08:56:06;20.95;;;8.15;;
51382;SDS011;37475;43.358;1.248;2022-10-31T08:58:32;22.15;;;8.43;;
51382;SDS011;37475;43.358;1.248;2022-10-31T09:00:58;25.45;;;8.35;;
51382;SDS011;37475;43.358;1.248;2022-10-31T09:03:27;21.60;;;7.70;;
51382;SDS011;37475;43.358;1.248;2022-10-31T09:05:56;22.70;;;7.97;;
51382;SDS011;37475;43.358;1.248;2022-10-31T09:08:23;22.52;;;8.05;;
51382;SDS011;37475;43.358;1.248;2022-10-31T09:10:50;20.23;;;7.40;;
51382;SDS011;37475;43.358;1.248;2022-10-31T09:13:19;19.95;;;7.13;;
51382;SDS011;37475;43.358;1.248;2022-10-31T09:15:46;16.75;;;7.15;;
51382;SDS011;37475;43.358;1.248;2022-10-31T09:18:15;19.38;;;7.20;;
51382;SDS011;37475;43.358;1.248;2022-10-31T09:20:44;18.23;;;7.45;;
51382;SDS011;37475;43.358;1.248;2022-10-31T09:23:19;22.88;;;7.43;;
51382;SDS011;37475;43.358;1.248;2022-10-31T09:25:48;23.48;;;6.88;;
51382;SDS011;37475;43.358;1.248;2022-10-31T09:28:16;18.65;;;6.65;;
51382;SDS011;37475;43.358;1.248;2022-10-31T09:30:46;23.38;;;6.85;;
51382;SDS011;37475;43.358;1.248;2022-10-31T09:33:14;25.73;;;7.50;;
51382;SDS011;37475;43.358;1.248;2022-10-31T09:35:40;16.40;;;5.65;;
51382;SDS011;37475;43.358;1.248;2022-10-31T09:38:11;19.00;;;7.00;;
51382;SDS011;37475;43.358;1.248;2022-10-31T09:40:43;19.48;;;6.65;;
51382;SDS011;37475;43.358;1.248;2022-10-31T09:52:51;17.88;;;5.25;;
51382;SDS011;37475;43.358;1.248;2022-10-31T09:55:36;21.45;;;5.47;;
51382;SDS011;37475;43.358;1.248;2022-10-31T09:58:08;19.75;;;5.68;;
51382;SDS011;37475;43.358;1.248;2022-10-31T10:00:48;17.67;;;5.65;;
51382;SDS011;37475;43.358;1.248;2022-10-31T10:06:06;17.48;;;5.25;;
51382;SDS011;37475;43.358;1.248;2022-10-31T10:08:48;18.95;;;5.63;;
51382;SDS011;37475;43.358;1.248;2022-10-31T10:14:36;18.80;;;5.20;;
51382;SDS011;37475;43.358;1.248;2022-10-31T10:20:18;16.40;;;4.93;;
51382;SDS011;37475;43.358;1.248;2022-10-31T10:28:38;16.15;;;4.82;;
51382;SDS011;37475;43.358;1.248;2022-10-31T10:39:29;17.27;;;4.55;;
51382;SDS011;37475;43.358;1.248;2022-10-31T10:42:14;16.30;;;4.80;;
51382;SDS011;37475;43.358;1.248;2022-10-31T10:45:00;11.30;;;4.13;;
51382;SDS011;37475;43.358;1.248;2022-10-31T10:48:16;13.40;;;4.50;;
51382;SDS011;37475;43.358;1.248;2022-10-31T10:51:06;14.85;;;4.32;;
51382;SDS011;37475;43.358;1.248;2022-10-31T10:59:25;13.63;;;4.47;;
51382;SDS011;37475;43.358;1.248;2022-10-31T11:01:51;11.50;;;4.40;;
51382;SDS011;37475;43.358;1.248;2022-10-31T11:04:29;13.77;;;4.40;;
51382;SDS011;37475;43.358;1.248;2022-10-31T11:09:33;14.48;;;4.20;;
51382;SDS011;37475;43.358;1.248;2022-10-31T11:12:05;14.40;;;4.10;;
51382;SDS011;37475;43.358;1.248;2022-10-31T11:14:47;14.73;;;4.85;;
51382;SDS011;37475;43.358;1.248;2022-10-31T11:17:34;15.15;;;4.30;;
51382;SDS011;37475;43.358;1.248;2022-10-31T11:20:06;14.57;;;4.47;;
51382;SDS011;37475;43.358;1.248;2022-10-31T11:23:00;9.27;;;3.83;;
51382;SDS011;37475;43.358;1.248;2022-10-31T11:25:40;18.83;;;4.75;;
51382;SDS011;37475;43.358;1.248;2022-10-31T11:28:23;9.68;;;3.60;;
51382;SDS011;37475;43.358;1.248;2022-10-31T11:30:53;13.73;;;4.22;;
51382;SDS011;37475;43.358;1.248;2022-10-31T11:33:35;18.42;;;4.13;;
51382;SDS011;37475;43.358;1.248;2022-10-31T11:36:15;13.93;;;4.32;;
51382;SDS011;37475;43.358;1.248;2022-10-31T11:38:44;18.25;;;5.10;;
51382;SDS011;37475;43.358;1.248;2022-10-31T11:43:45;15.00;;;4.93;;
51382;SDS011;37475;43.358;1.248;2022-10-31T11:46:17;15.45;;;4.68;;
51382;SDS011;37475;43.358;1.248;2022-10-31T11:48:49;18.67;;;4.03;;
51382;SDS011;37475;43.358;1.248;2022-10-31T11:51:20;16.27;;;4.80;;
51382;SDS011;37475;43.358;1.248;2022-10-31T11:53:50;12.75;;;4.45;;
51382;SDS011;37475;43.358;1.248;2022-10-31T11:56:19;13.65;;;4.15;;
51382;SDS011;37475;43.358;1.248;2022-10-31T11:59:02;17.88;;;4.13;;
51382;SDS011;37475;43.358;1.248;2022-10-31T12:01:39;11.50;;;3.70;;
51382;SDS011;37475;43.358;1.248;2022-10-31T12:04:12;13.65;;;3.88;;
51382;SDS011;37475;43.358;1.248;2022-10-31T12:06:39;12.63;;;3.83;;
51382;SDS011;37475;43.358;1.248;2022-10-31T12:11:52;16.13;;;4.20;;
51382;SDS011;37475;43.358;1.248;2022-10-31T12:14:58;15.57;;;3.90;;
51382;SDS011;37475;43.358;1.248;2022-10-31T12:26:42;14.30;;;4.15;;
51382;SDS011;37475;43.358;1.248;2022-10-31T12:32:21;15.45;;;4.28;;
51382;SDS011;37475;43.358;1.248;2022-10-31T12:44:30;15.23;;;4.18;;
51382;SDS011;37475;43.358;1.248;2022-10-31T12:53:27;14.77;;;4.18;;
51382;SDS011;37475;43.358;1.248;2022-10-31T12:56:31;17.23;;;4.30;;
51382;SDS011;37475;43.358;1.248;2022-10-31T12:59:22;11.95;;;4.05;;
51382;SDS011;37475;43.358;1.248;2022-10-31T13:05:50;12.60;;;4.78;;
51382;SDS011;37475;43.358;1.248;2022-10-31T13:08:11;19.50;;;4.53;;
51382;SDS011;37475;43.358;1.248;2022-10-31T13:13:23;15.38;;;4.78;;
51382;SDS011;37475;43.358;1.248;2022-10-31T13:16:04;17.10;;;4.45;;
51382;SDS011;37475;43.358;1.248;2022-10-31T13:18:53;13.23;;;4.57;;
51382;SDS011;37475;43.358;1.248;2022-10-31T13:21:23;13.98;;;4.57;;
51382;SDS011;37475;43.358;1.248;2022-10-31T13:24:27;14.55;;;4.60;;
51382;SDS011;37475;43.358;1.248;2022-10-31T13:27:10;13.02;;;4.63;;
51382;SDS011;37475;43.358;1.248;2022-10-31T13:30:19;15.73;;;4.63;;
51382;SDS011;37475;43.358;1.248;2022-10-31T13:32:49;19.83;;;5.20;;
51382;SDS011;37475;43.358;1.248;2022-10-31T13:35:43;16.77;;;4.68;;
51382;SDS011;37475;43.358;1.248;2022-10-31T13:47:02;18.88;;;4.95;;
51382;SDS011;37475;43.358;1.248;2022-10-31T13:54:35;18.00;;;5.80;;
51382;SDS011;37475;43.358;1.248;2022-10-31T14:02:47;17.27;;;5.10;;
51382;SDS011;37475;43.358;1.248;2022-10-31T14:05:21;14.20;;;5.65;;
51382;SDS011;37475;43.358;1.248;2022-10-31T14:07:54;17.80;;;5.47;;
51382;SDS011;37475;43.358;1.248;2022-10-31T14:10:26;16.95;;;5.10;;
51382;SDS011;37475;43.358;1.248;2022-10-31T14:16:03;19.95;;;5.25;;
51382;SDS011;37475;43.358;1.248;2022-10-31T14:18:48;21.45;;;6.05;;
51382;SDS011;37475;43.358;1.248;2022-10-31T14:21:42;21.63;;;5.90;;
51382;SDS011;37475;43.358;1.248;2022-10-31T14:26:53;16.70;;;5.22;;
51382;SDS011;37475;43.358;1.248;2022-10-31T14:29:28;16.88;;;5.28;;
51382;SDS011;37475;43.358;1.248;2022-10-31T14:46:17;16.55;;;5.75;;
51382;SDS011;37475;43.358;1.248;2022-10-31T14:49:19;17.25;;;5.53;;
51382;SDS011;37475;43.358;1.248;2022-10-31T14:52:11;14.82;;;5.10;;
51382;SDS011;37475;43.358;1.248;2022-10-31T14:54:41;23.50;;;6.55;;
51382;SDS011;37475;43.358;1.248;2022-10-31T14:57:20;18.23;;;5.80;;
51382;SDS011;37475;43.358;1.248;2022-10-31T14:59:56;15.93;;;5.47;;
51382;SDS011;37475;43.358;1.248;2022-10-31T15:02:39;15.80;;;5.13;;
51382;SDS011;37475;43.358;1.248;2022-10-31T15:05:16;17.67;;;5.25;;
51382;SDS011;37475;43.358;1.248;2022-10-31T15:07:53;21.98;;;5.60;;
51382;SDS011;37475;43.358;1.248;2022-10-31T15:10:22;16.65;;;5.32;;
51382;SDS011;37475;43.358;1.248;2022-10-31T15:12:52;17.98;;;5.40;;
51382;SDS011;37475;43.358;1.248;2022-10-31T15:15:22;12.68;;;5.00;;
51382;SDS011;37475;43.358;1.248;2022-10-31T15:17:52;21.27;;;5.72;;
51382;SDS011;37475;43.358;1.248;2022-10-31T15:20:25;13.80;;;5.38;;
51382;SDS011;37475;43.358;1.248;2022-10-31T15:22:57;14.07;;;5.15;;
51382;SDS011;37475;43.358;1.248;2022-10-31T15:25:25;18.70;;;5.60;;
51382;SDS011;37475;43.358;1.248;2022-10-31T15:27:55;16.75;;;5.15;;
51382;SDS011;37475;43.358;1.248;2022-10-31T15:32:50;18.45;;;5.72;;
51382;SDS011;37475;43.358;1.248;2022-10-31T15:35:23;17.70;;;5.53;;
51382;SDS011;37475;43.358;1.248;2022-10-31T15:37:54;19.92;;;5.95;;
51382;SDS011;37475;43.358;1.248;2022-10-31T15:40:22;23.10;;;5.97;;
51382;SDS011;37475;43.358;1.248;2022-10-31T15:42:54;17.17;;;5.45;;
51382;SDS011;37475;43.358;1.248;2022-10-31T15:45:26;18.02;;;5.32;;
51382;SDS011;37475;43.358;1.248;2022-10-31T15:50:27;19.35;;;5.70;;
51382;SDS011;37475;43.358;1.248;2022-10-31T15:55:53;19.27;;;5.78;;
51382;SDS011;37475;43.358;1.248;2022-10-31T15:58:25;23.35;;;6.65;;
51382;SDS011;37475;43.358;1.248;2022-10-31T16:00:57;22.98;;;5.80;;
51382;SDS011;37475;43.358;1.248;2022-10-31T16:03:29;18.15;;;5.90;;
51382;SDS011;37475;43.358;1.248;2022-10-31T16:05:58;20.45;;;5.80;;
51382;SDS011;37475;43.358;1.248;2022-10-31T16:10:54;16.73;;;5.93;;
51382;SDS011;37475;43.358;1.248;2022-10-31T16:13:36;19.65;;;6.15;;
51382;SDS011;37475;43.358;1.248;2022-10-31T16:16:13;19.27;;;5.22;;
51382;SDS011;37475;43.358;1.248;2022-10-31T16:18:41;21.77;;;6.45;;
51382;SDS011;37475;43.358;1.248;2022-10-31T16:21:08;16.48;;;6.20;;
51382;SDS011;37475;43.358;1.248;2022-10-31T16:23:35;19.75;;;6.05;;
51382;SDS011;37475;43.358;1.248;2022-10-31T16:26:07;25.00;;;6.43;;
51382;SDS011;37475;43.358;1.248;2022-10-31T16:28:34;17.42;;;5.93;;
51382;SDS011;37475;43.358;1.248;2022-10-31T16:31:01;27.73;;;5.60;;
51382;SDS011;37475;43.358;1.248;2022-10-31T16:33:39;20.75;;;6.10;;
51382;SDS011;37475;43.358;1.248;2022-10-31T16:39:02;18.15;;;6.18;;
51382;SDS011;37475;43.358;1.248;2022-10-31T16:41:28;17.38;;;6.00;;
51382;SDS011;37475;43.358;1.248;2022-10-31T16:43:54;20.40;;;5.82;;
51382;SDS011;37475;43.358;1.248;2022-10-31T16:46:24;22.70;;;6.15;;
51382;SDS011;37475;43.358;1.248;2022-10-31T16:48:51;18.02;;;6.20;;
51382;SDS011;37475;43.358;1.248;2022-10-31T16:51:18;17.75;;;6.25;;
51382;SDS011;37475;43.358;1.248;2022-10-31T16:53:45;22.25;;;5.93;;
51382;SDS011;37475;43.358;1.248;2022-10-31T16:56:32;22.98;;;6.35;;
51382;SDS011;37475;43.358;1.248;2022-10-31T16:58:59;20.70;;;6.72;;
51382;SDS011;37475;43.358;1.248;2022-10-31T17:01:28;18.42;;;5.82;;
51382;SDS011;37475;43.358;1.248;2022-10-31T17:03:55;27.67;;;6.72;;
51382;SDS011;37475;43.358;1.248;2022-10-31T17:06:21;17.92;;;6.10;;
51382;SDS011;37475;43.358;1.248;2022-10-31T17:08:47;21.35;;;6.20;;
51382;SDS011;37475;43.358;1.248;2022-10-31T17:11:14;24.95;;;6.40;;
51382;SDS011;37475;43.358;1.248;2022-10-31T17:13:44;18.98;;;5.65;;
51382;SDS011;37475;43.358;1.248;2022-10-31T17:16:10;17.08;;;6.47;;
51382;SDS011;37475;43.358;1.248;2022-10-31T17:18:37;19.45;;;6.40;;
51382;SDS011;37475;43.358;1.248;2022-10-31T17:21:03;22.52;;;6.22;;
51382;SDS011;37475;43.358;1.248;2022-10-31T17:23:32;22.35;;;6.45;;
51382;SDS011;37475;43.358;1.248;2022-10-31T17:25:58;19.42;;;6.07;;
51382;SDS011;37475;43.358;1.248;2022-10-31T17:28:24;26.08;;;6.38;;
51382;SDS011;37475;43.358;1.248;2022-10-31T17:30:52;24.92;;;6.80;;
51382;SDS011;37475;43.358;1.248;2022-10-31T17:33:20;21.45;;;6.68;;
51382;SDS011;37475;43.358;1.248;2022-10-31T17:35:45;18.65;;;6.22;;
51382;SDS011;37475;43.358;1.248;2022-10-31T17:38:11;23.55;;;6.78;;